createdAt,value
2022-11-18T00:00:19.520Z,34.04
2022-11-18T00:00:50.789Z,33.79
2022-11-18T00:01:22.628Z,34.08
2022-11-18T00:01:53.928Z,34.27
2022-11-18T00:02:25.281Z,34.28
2022-11-18T00:02:56.596Z,34.13
2022-11-18T00:03:27.874Z,33.88
2022-11-18T00:03:59.133Z,34.01
2022-11-18T00:04:30.398Z,33.83
2022-11-18T00:05:01.667Z,34.02
2022-11-18T00:05:32.951Z,34.23
2022-11-18T00:06:04.298Z,33.89
2022-11-18T00:06:35.572Z,33.92
2022-11-18T00:07:06.900Z,34.28
2022-11-18T00:07:38.280Z,34.15
2022-11-18T00:08:09.616Z,33.93
2022-11-18T00:08:40.978Z,33.95
2022-11-18T00:09:12.231Z,33.92
2022-11-18T00:09:43.502Z,33.84
2022-11-18T00:10:14.757Z,34.03
2022-11-18T00:10:46.070Z,33.83
2022-11-18T00:11:18.367Z,34.14
2022-11-18T00:11:49.630Z,33.90
2022-11-18T00:12:20.900Z,33.90
2022-11-18T00:12:52.177Z,33.85
2022-11-18T00:13:23.440Z,34.01
2022-11-18T00:13:54.681Z,34.21
2022-11-18T00:14:25.942Z,34.30
2022-11-18T00:14:57.180Z,34.17
2022-11-18T00:15:31.679Z,33.86
2022-11-18T00:16:03.692Z,33.81
2022-11-18T00:16:34.973Z,34.29
2022-11-18T00:17:06.356Z,34.30
2022-11-18T00:17:37.655Z,34.03
2022-11-18T00:18:08.912Z,34.08
2022-11-18T00:18:40.172Z,33.92
2022-11-18T00:19:11.449Z,34.27
2022-11-18T00:19:42.732Z,33.93
2022-11-18T00:20:14.148Z,33.94
2022-11-18T00:20:45.418Z,34.04
2022-11-18T00:21:16.723Z,33.90
2022-11-18T00:21:48.075Z,34.13
2022-11-18T00:22:19.311Z,34.19
2022-11-18T00:22:50.566Z,34.05
2022-11-18T00:23:21.823Z,33.82
2022-11-18T00:23:53.093Z,34.04
2022-11-18T00:24:24.348Z,34.21
2022-11-18T00:24:55.633Z,33.75
2022-11-18T00:25:27.075Z,33.75
2022-11-18T00:26:08.032Z,34.20
2022-11-18T00:26:39.315Z,33.74
2022-11-18T00:27:10.614Z,33.79
2022-11-18T00:27:41.917Z,33.74
2022-11-18T00:28:13.226Z,34.13
2022-11-18T00:28:44.515Z,33.78
2022-11-18T00:29:16.406Z,33.67
2022-11-18T00:29:47.975Z,34.06
2022-11-18T00:30:19.279Z,33.72
2022-11-18T00:30:50.550Z,33.90
2022-11-18T00:31:21.846Z,33.87
2022-11-18T00:31:53.138Z,33.84
2022-11-18T00:32:24.459Z,34.06
2022-11-18T00:32:55.833Z,33.77
2022-11-18T00:33:27.087Z,33.96
2022-11-18T00:33:58.386Z,34.10
2022-11-18T00:34:29.725Z,33.95
2022-11-18T00:35:01.016Z,33.74
2022-11-18T00:35:32.285Z,33.74
2022-11-18T00:36:04.119Z,33.78
2022-11-18T00:36:35.393Z,33.89
2022-11-18T00:37:06.627Z,34.24
2022-11-18T00:37:37.888Z,33.98
2022-11-18T00:38:09.178Z,33.89
2022-11-18T00:38:40.529Z,34.01
2022-11-18T00:39:12.142Z,34.02
2022-11-18T00:39:43.422Z,33.91
2022-11-18T00:40:14.738Z,33.95
2022-11-18T00:40:46.010Z,33.88
2022-11-18T00:41:17.309Z,33.90
2022-11-18T00:41:48.685Z,34.03
2022-11-18T00:42:19.950Z,34.00
2022-11-18T00:42:51.245Z,33.94
2022-11-18T00:43:22.516Z,33.94
2022-11-18T00:43:53.786Z,33.95
2022-11-18T00:44:25.102Z,33.97
2022-11-18T00:44:56.415Z,33.79
2022-11-18T00:45:27.700Z,33.92
2022-11-18T00:45:59.000Z,33.98
2022-11-18T00:46:30.263Z,34.05
2022-11-18T00:47:01.579Z,33.97
2022-11-18T00:47:32.855Z,33.82
2022-11-18T00:48:04.315Z,33.99
2022-11-18T00:48:35.736Z,34.05
2022-11-18T00:49:07.139Z,34.02
2022-11-18T00:49:38.399Z,33.82
2022-11-18T00:50:09.751Z,33.95
2022-11-18T00:50:41.036Z,34.10
2022-11-18T00:51:16.498Z,33.88
2022-11-18T00:51:47.762Z,33.73
2022-11-18T00:52:19.061Z,33.83
2022-11-18T00:52:50.318Z,34.00
2022-11-18T00:53:21.858Z,33.64
2022-11-18T00:53:53.166Z,33.79
2022-11-18T00:54:24.451Z,34.04
2022-11-18T00:54:55.735Z,33.87
2022-11-18T00:55:27.030Z,33.97
2022-11-18T00:55:58.321Z,33.73
2022-11-18T00:56:29.613Z,33.85
2022-11-18T00:57:00.933Z,33.86
2022-11-18T00:57:32.202Z,33.61
2022-11-18T00:58:03.473Z,33.66
2022-11-18T00:58:34.928Z,33.92
2022-11-18T00:59:06.238Z,33.88
2022-11-18T00:59:37.540Z,34.01
2022-11-18T01:00:09.153Z,34.05
2022-11-18T01:00:41.127Z,33.72
2022-11-18T01:01:12.592Z,33.57
2022-11-18T01:01:43.993Z,34.03
2022-11-18T01:02:15.321Z,33.85
2022-11-18T01:02:46.604Z,33.82
2022-11-18T01:03:17.909Z,33.77
2022-11-18T01:03:49.189Z,33.73
2022-11-18T01:04:20.443Z,33.70
2022-11-18T01:04:51.761Z,34.00
2022-11-18T01:05:23.049Z,33.70
2022-11-18T01:05:54.339Z,34.10
2022-11-18T01:06:25.629Z,34.04
2022-11-18T01:06:56.970Z,33.97
2022-11-18T01:07:28.345Z,33.69
2022-11-18T01:07:59.721Z,33.71
2022-11-18T01:08:31.011Z,33.96
2022-11-18T01:09:02.299Z,34.00
2022-11-18T01:09:33.587Z,33.88
2022-11-18T01:10:05.018Z,33.85
2022-11-18T01:10:36.475Z,33.76
2022-11-18T01:11:07.783Z,33.82
2022-11-18T01:11:39.073Z,33.95
2022-11-18T01:12:11.079Z,34.02
2022-11-18T01:12:42.350Z,33.66
2022-11-18T01:13:14.114Z,33.99
2022-11-18T01:13:45.404Z,33.97
2022-11-18T01:14:16.700Z,33.71
2022-11-18T01:14:47.995Z,33.68
2022-11-18T01:15:19.316Z,33.95
2022-11-18T01:15:51.434Z,33.99
2022-11-18T01:16:23.400Z,33.84
2022-11-18T01:16:55.270Z,33.71
2022-11-18T01:17:29.216Z,33.93
2022-11-18T01:18:00.514Z,33.83
2022-11-18T01:18:31.768Z,33.68
2022-11-18T01:19:03.022Z,33.66
2022-11-18T01:19:34.400Z,34.07
2022-11-18T01:20:05.963Z,34.06
2022-11-18T01:20:37.251Z,33.81
2022-11-18T01:21:08.534Z,34.00
2022-11-18T01:21:41.924Z,34.11
2022-11-18T01:22:13.230Z,33.70
2022-11-18T01:22:44.512Z,33.96
2022-11-18T01:23:15.793Z,33.96
2022-11-18T01:23:47.086Z,33.94
2022-11-18T01:24:18.321Z,33.70
2022-11-18T01:24:49.600Z,33.84
2022-11-18T01:25:20.867Z,34.03
2022-11-18T01:25:52.157Z,33.72
2022-11-18T01:26:23.438Z,33.81
2022-11-18T01:26:54.732Z,33.94
2022-11-18T01:27:26.016Z,34.03
2022-11-18T01:27:57.315Z,33.94
2022-11-18T01:28:28.616Z,33.64
2022-11-18T01:28:59.869Z,33.98
2022-11-18T01:29:31.162Z,33.65
2022-11-18T01:30:02.493Z,33.74
2022-11-18T01:30:34.359Z,33.90
2022-11-18T01:31:06.226Z,34.03
2022-11-18T01:31:49.892Z,33.81
2022-11-18T01:32:28.765Z,33.79
2022-11-18T01:33:00.080Z,33.68
2022-11-18T01:33:31.556Z,33.88
2022-11-18T01:34:02.850Z,33.94
2022-11-18T01:34:34.109Z,34.08
2022-11-18T01:35:05.573Z,33.97
2022-11-18T01:35:40.908Z,33.87
2022-11-18T01:36:18.811Z,33.88
2022-11-18T01:36:51.936Z,33.69
2022-11-18T01:37:23.233Z,33.79
2022-11-18T01:37:54.548Z,33.83
2022-11-18T01:38:25.843Z,33.76
2022-11-18T01:38:57.118Z,33.82
2022-11-18T01:39:28.411Z,33.88
2022-11-18T01:39:59.769Z,33.63
2022-11-18T01:40:31.156Z,33.88
2022-11-18T01:41:02.433Z,33.96
2022-11-18T01:41:33.727Z,34.12
2022-11-18T01:42:05.031Z,33.97
2022-11-18T01:42:36.333Z,33.94
2022-11-18T01:43:14.286Z,33.85
2022-11-18T01:43:49.498Z,33.97
2022-11-18T01:44:39.428Z,33.97
2022-11-18T01:45:15.752Z,33.68
2022-11-18T01:45:47.772Z,34.09
2022-11-18T01:46:19.284Z,33.98
2022-11-18T01:46:50.582Z,33.68
2022-11-18T01:47:21.880Z,34.11
2022-11-18T01:48:05.365Z,33.78
2022-11-18T01:48:36.654Z,34.05
2022-11-18T01:49:08.885Z,33.72
2022-11-18T01:49:40.190Z,33.74
2022-11-18T01:50:11.796Z,33.80
2022-11-18T01:50:44.351Z,33.93
2022-11-18T01:51:16.312Z,33.77
2022-11-18T01:51:49.131Z,33.69
2022-11-18T01:52:20.626Z,33.66
2022-11-18T01:52:52.414Z,33.88
2022-11-18T01:53:25.902Z,33.94
2022-11-18T01:54:02.763Z,33.81
2022-11-18T01:54:34.402Z,33.71
2022-11-18T01:55:15.964Z,33.64
2022-11-18T01:55:47.833Z,33.62
2022-11-18T01:56:21.870Z,33.90
2022-11-18T01:56:54.105Z,34.00
2022-11-18T01:57:25.405Z,34.02
2022-11-18T01:58:02.129Z,34.00
2022-11-18T01:58:39.928Z,33.67
2022-11-18T01:59:11.847Z,33.95
2022-11-18T01:59:43.352Z,33.81
2022-11-18T02:00:14.699Z,33.65
2022-11-18T02:00:45.978Z,33.92
2022-11-18T02:01:17.255Z,34.00
2022-11-18T02:01:48.567Z,33.52
2022-11-18T02:02:19.848Z,33.88
2022-11-18T02:02:51.121Z,33.79
2022-11-18T02:03:22.385Z,33.85
2022-11-18T02:03:53.641Z,34.01
2022-11-18T02:04:25.193Z,34.02
2022-11-18T02:04:56.492Z,33.68
2022-11-18T02:05:27.773Z,33.77
2022-11-18T02:05:59.640Z,33.81
2022-11-18T02:06:30.962Z,33.94
2022-11-18T02:07:02.275Z,33.93
2022-11-18T02:07:34.520Z,33.74
2022-11-18T02:08:05.835Z,33.77
2022-11-18T02:08:37.117Z,33.88
2022-11-18T02:09:08.405Z,33.70
2022-11-18T02:09:39.706Z,33.93
2022-11-18T02:10:16.815Z,33.70
2022-11-18T02:10:48.116Z,33.88
2022-11-18T02:11:19.408Z,33.67
2022-11-18T02:11:50.776Z,33.99
2022-11-18T02:12:22.152Z,33.66
2022-11-18T02:12:53.772Z,33.56
2022-11-18T02:13:25.045Z,33.97
2022-11-18T02:13:56.728Z,33.79
2022-11-18T02:14:28.720Z,33.79
2022-11-18T02:15:00.011Z,33.53
2022-11-18T02:15:34.014Z,33.58
2022-11-18T02:16:06.722Z,33.74
2022-11-18T02:16:56.185Z,33.56
2022-11-18T02:17:31.078Z,33.40
2022-11-18T02:18:17.310Z,33.75
2022-11-18T02:18:55.525Z,33.67
2022-11-18T02:19:45.364Z,33.69
2022-11-18T02:20:16.625Z,33.49
2022-11-18T02:20:47.943Z,33.50
2022-11-18T02:21:21.752Z,33.57
2022-11-18T02:21:52.985Z,33.59
2022-11-18T02:22:42.720Z,33.50
2022-11-18T02:23:13.963Z,33.48
2022-11-18T02:23:51.477Z,33.91
2022-11-18T02:24:25.871Z,33.85
2022-11-18T02:25:19.118Z,33.69
2022-11-18T02:26:08.616Z,33.68
2022-11-18T02:26:54.982Z,33.45
2022-11-18T02:27:44.970Z,33.60
2022-11-18T02:28:34.995Z,34.00
2022-11-18T02:29:09.647Z,33.55
2022-11-18T02:29:42.528Z,33.68
2022-11-18T02:30:13.811Z,33.92
2022-11-18T02:30:48.915Z,33.56
2022-11-18T02:31:21.810Z,33.93
2022-11-18T02:31:55.865Z,33.58
2022-11-18T02:32:33.516Z,33.70
2022-11-18T02:33:07.017Z,33.67
2022-11-18T02:33:49.937Z,33.68
2022-11-18T02:34:39.726Z,33.97
2022-11-18T02:35:10.967Z,33.78
2022-11-18T02:35:46.718Z,33.94
2022-11-18T02:36:18.973Z,33.54
2022-11-18T02:36:55.220Z,33.68
2022-11-18T02:37:55.639Z,33.58
2022-11-18T02:38:27.576Z,33.58
2022-11-18T02:39:09.054Z,33.54
2022-11-18T02:39:43.421Z,33.52
2022-11-18T02:40:14.698Z,33.69
2022-11-18T02:40:47.075Z,33.47
2022-11-18T02:41:20.261Z,33.54
2022-11-18T02:41:51.581Z,33.55
2022-11-18T02:42:22.869Z,33.82
2022-11-18T02:42:58.431Z,33.75
2022-11-18T02:43:36.426Z,33.71
2022-11-18T02:44:14.333Z,33.55
2022-11-18T02:44:46.806Z,33.61
2022-11-18T02:45:18.126Z,33.91
2022-11-18T02:45:49.683Z,33.55
2022-11-18T02:46:24.098Z,33.86
2022-11-18T02:46:56.296Z,33.77
2022-11-18T02:47:27.578Z,33.53
2022-11-18T02:47:59.902Z,33.46
2022-11-18T02:48:31.217Z,33.86
2022-11-18T02:49:02.990Z,33.46
2022-11-18T02:49:44.192Z,33.76
2022-11-18T02:50:16.659Z,33.76
2022-11-18T02:50:48.308Z,33.50
2022-11-18T02:51:20.836Z,33.45
2022-11-18T02:51:52.128Z,33.62
2022-11-18T02:52:23.415Z,33.46
2022-11-18T02:52:59.507Z,33.64
2022-11-18T02:53:30.854Z,33.57
2022-11-18T02:54:05.787Z,33.41
2022-11-18T02:54:37.577Z,33.71
2022-11-18T02:55:09.232Z,33.68
2022-11-18T02:55:40.509Z,33.88
2022-11-18T02:56:11.755Z,33.57
2022-11-18T02:56:43.023Z,33.44
2022-11-18T02:57:14.310Z,33.41
2022-11-18T02:57:45.602Z,33.51
2022-11-18T02:58:17.863Z,33.54
2022-11-18T02:58:49.143Z,33.46
2022-11-18T02:59:20.604Z,33.64
2022-11-18T02:59:51.890Z,33.54
2022-11-18T03:00:23.178Z,33.79
2022-11-18T03:00:55.153Z,33.95
2022-11-18T03:01:26.880Z,33.80
2022-11-18T03:01:58.369Z,33.52
2022-11-18T03:02:38.944Z,33.80
2022-11-18T03:03:25.246Z,33.81
2022-11-18T03:03:56.582Z,33.78
2022-11-18T03:04:27.849Z,33.57
2022-11-18T03:04:59.128Z,34.02
2022-11-18T03:05:33.670Z,33.78
2022-11-18T03:06:23.672Z,33.50
2022-11-18T03:07:06.656Z,33.92
2022-11-18T03:07:38.072Z,33.63
2022-11-18T03:08:11.082Z,33.55
2022-11-18T03:08:44.592Z,33.46
2022-11-18T03:09:20.940Z,33.58
2022-11-18T03:09:52.276Z,33.63
2022-11-18T03:10:23.821Z,33.98
2022-11-18T03:11:00.685Z,33.70
2022-11-18T03:11:39.058Z,33.54
2022-11-18T03:12:28.665Z,33.68
2022-11-18T03:13:05.669Z,33.91
2022-11-18T03:13:43.393Z,33.92
2022-11-18T03:14:23.927Z,33.86
2022-11-18T03:15:13.896Z,33.55
2022-11-18T03:15:45.130Z,33.90
2022-11-18T03:16:21.513Z,33.91
2022-11-18T03:17:02.909Z,33.79
2022-11-18T03:17:45.628Z,33.87
2022-11-18T03:18:28.135Z,33.64
2022-11-18T03:19:03.196Z,33.72
2022-11-18T03:19:51.597Z,33.81
2022-11-18T03:20:27.066Z,34.02
2022-11-18T03:21:18.580Z,33.67
2022-11-18T03:21:56.901Z,33.74
2022-11-18T03:22:31.168Z,33.89
2022-11-18T03:23:04.519Z,33.97
2022-11-18T03:23:38.945Z,33.99
2022-11-18T03:24:13.195Z,33.83
2022-11-18T03:24:45.830Z,33.72
2022-11-18T03:25:24.718Z,33.85
2022-11-18T03:26:06.236Z,33.63
2022-11-18T03:26:38.917Z,33.55
2022-11-18T03:27:14.647Z,33.85
2022-11-18T03:28:06.173Z,33.71
2022-11-18T03:28:42.774Z,33.69
2022-11-18T03:29:18.213Z,33.70
2022-11-18T03:29:52.440Z,33.88
2022-11-18T03:30:23.759Z,34.08
2022-11-18T03:31:14.809Z,33.96
2022-11-18T03:31:50.083Z,33.80
2022-11-18T03:32:23.389Z,34.02
2022-11-18T03:32:59.084Z,33.64
2022-11-18T03:33:32.376Z,33.84
2022-11-18T03:34:08.356Z,34.10
2022-11-18T03:34:40.637Z,33.73
2022-11-18T03:35:13.372Z,33.76
2022-11-18T03:35:45.549Z,33.60
2022-11-18T03:36:16.821Z,33.56
2022-11-18T03:36:51.966Z,33.53
2022-11-18T03:37:23.550Z,33.58
2022-11-18T03:37:56.424Z,33.83
2022-11-18T03:38:28.937Z,34.03
2022-11-18T03:39:00.290Z,33.92
2022-11-18T03:39:32.042Z,33.69
2022-11-18T03:40:05.145Z,33.64
2022-11-18T03:40:36.845Z,33.73
2022-11-18T03:41:08.573Z,33.77
2022-11-18T03:41:40.982Z,33.87
2022-11-18T03:42:21.357Z,34.04
2022-11-18T03:43:00.482Z,33.74
2022-11-18T03:43:32.330Z,33.93
2022-11-18T03:44:07.668Z,33.89
2022-11-18T03:44:39.795Z,34.01
2022-11-18T03:45:24.848Z,34.03
2022-11-18T03:46:06.991Z,33.77
2022-11-18T03:46:39.252Z,33.75
2022-11-18T03:47:12.139Z,33.91
2022-11-18T03:47:44.800Z,33.85
2022-11-18T03:48:16.729Z,34.04
2022-11-18T03:48:49.246Z,34.14
2022-11-18T03:49:30.538Z,34.27
2022-11-18T03:50:04.364Z,33.80
2022-11-18T03:50:36.232Z,33.86
2022-11-18T03:51:08.564Z,33.76
2022-11-18T03:51:40.700Z,33.87
2022-11-18T03:52:15.770Z,34.02
2022-11-18T03:52:47.068Z,34.12
2022-11-18T03:53:18.466Z,33.84
2022-11-18T03:53:54.217Z,33.77
2022-11-18T03:54:27.176Z,33.65
2022-11-18T03:54:58.532Z,33.96
2022-11-18T03:55:31.046Z,34.11
2022-11-18T03:56:04.012Z,34.09
2022-11-18T03:56:37.012Z,34.16
2022-11-18T03:57:27.723Z,33.96
2022-11-18T03:58:06.606Z,33.84
2022-11-18T03:58:46.955Z,33.85
2022-11-18T03:59:19.401Z,34.04
2022-11-18T03:59:52.469Z,34.05
2022-11-18T04:00:23.758Z,34.02
2022-11-18T04:00:56.861Z,33.85
2022-11-18T04:01:35.822Z,33.88
2022-11-18T04:02:11.334Z,33.80
2022-11-18T04:02:42.680Z,33.86
2022-11-18T04:03:13.952Z,34.04
2022-11-18T04:03:45.223Z,34.03
2022-11-18T04:04:16.486Z,33.77
2022-11-18T04:04:48.214Z,33.87
2022-11-18T04:05:19.509Z,33.76
2022-11-18T04:05:50.885Z,33.93
2022-11-18T04:06:26.860Z,33.87
2022-11-18T04:07:02.840Z,34.16
2022-11-18T04:07:52.213Z,34.15
2022-11-18T04:08:24.708Z,34.09
2022-11-18T04:08:56.615Z,34.18
2022-11-18T04:09:29.689Z,33.84
2022-11-18T04:10:04.084Z,34.19
2022-11-18T04:10:37.699Z,33.92
2022-11-18T04:11:10.073Z,34.10
2022-11-18T04:11:45.012Z,33.83
2022-11-18T04:12:17.455Z,34.06
2022-11-18T04:12:49.758Z,33.81
2022-11-18T04:13:28.103Z,34.05
2022-11-18T04:13:59.437Z,34.09
2022-11-18T04:14:31.468Z,33.80
2022-11-18T04:15:02.729Z,33.86
2022-11-18T04:15:36.529Z,33.94
2022-11-18T04:16:07.820Z,33.95
2022-11-18T04:16:41.989Z,34.23
2022-11-18T04:17:14.175Z,33.87
2022-11-18T04:17:45.467Z,33.98
2022-11-18T04:18:16.804Z,33.67
2022-11-18T04:18:48.112Z,33.76
2022-11-18T04:19:19.553Z,34.17
2022-11-18T04:19:51.075Z,33.77
2022-11-18T04:20:22.358Z,33.76
2022-11-18T04:20:53.708Z,34.05
2022-11-18T04:21:25.002Z,33.82
2022-11-18T04:21:56.309Z,34.02
2022-11-18T04:22:27.571Z,33.87
2022-11-18T04:22:58.866Z,33.76
2022-11-18T04:23:30.153Z,33.75
2022-11-18T04:24:01.521Z,33.82
2022-11-18T04:24:32.855Z,34.02
2022-11-18T04:25:04.199Z,33.77
2022-11-18T04:25:35.669Z,33.76
2022-11-18T04:26:06.965Z,33.92
2022-11-18T04:26:38.266Z,33.88
2022-11-18T04:27:09.531Z,33.82
2022-11-18T04:27:40.864Z,33.71
2022-11-18T04:28:12.160Z,33.75
2022-11-18T04:28:43.446Z,33.71
2022-11-18T04:29:14.933Z,33.85
2022-11-18T04:29:46.325Z,33.84
2022-11-18T04:30:17.675Z,33.92
2022-11-18T04:30:48.947Z,33.88
2022-11-18T04:31:20.244Z,33.74
2022-11-18T04:31:51.500Z,34.22
2022-11-18T04:32:22.770Z,33.79
2022-11-18T04:32:54.041Z,33.87
2022-11-18T04:33:25.291Z,33.76
2022-11-18T04:33:56.571Z,34.02
2022-11-18T04:34:27.843Z,33.76
2022-11-18T04:34:59.105Z,34.08
2022-11-18T04:35:30.382Z,33.93
2022-11-18T04:36:01.644Z,34.06
2022-11-18T04:36:32.921Z,34.31
2022-11-18T04:37:04.215Z,33.80
2022-11-18T04:37:35.524Z,34.28
2022-11-18T04:38:06.811Z,33.93
2022-11-18T04:38:38.093Z,34.04
2022-11-18T04:39:09.453Z,33.94
2022-11-18T04:39:40.755Z,33.98
2022-11-18T04:40:12.103Z,33.95
2022-11-18T04:40:43.344Z,34.26
2022-11-18T04:41:14.658Z,33.95
2022-11-18T04:41:45.981Z,34.17
2022-11-18T04:42:17.245Z,33.90
2022-11-18T04:42:48.515Z,34.14
2022-11-18T04:43:19.774Z,34.29
2022-11-18T04:43:51.032Z,34.08
2022-11-18T04:44:22.939Z,33.93
2022-11-18T04:44:54.265Z,34.22
2022-11-18T04:45:25.572Z,33.90
2022-11-18T04:45:56.832Z,34.26
2022-11-18T04:46:28.109Z,34.42
2022-11-18T04:47:00.571Z,34.09
2022-11-18T04:47:31.850Z,33.91
2022-11-18T04:48:03.913Z,34.29
2022-11-18T04:48:35.417Z,34.30
2022-11-18T04:49:07.045Z,33.90
2022-11-18T04:49:38.354Z,34.22
2022-11-18T04:50:09.786Z,33.95
2022-11-18T04:50:41.062Z,34.08
2022-11-18T04:51:12.342Z,33.87
2022-11-18T04:51:43.640Z,34.09
2022-11-18T04:52:14.909Z,34.09
2022-11-18T04:52:46.169Z,33.94
2022-11-18T04:53:17.465Z,33.97
2022-11-18T04:53:48.736Z,34.35
2022-11-18T04:54:20.010Z,34.31
2022-11-18T04:54:51.298Z,33.84
2022-11-18T04:55:22.644Z,34.20
2022-11-18T04:55:53.931Z,34.01
2022-11-18T04:56:25.210Z,34.14
2022-11-18T04:56:56.539Z,34.11
2022-11-18T04:57:27.849Z,33.99
2022-11-18T04:57:59.152Z,34.07
2022-11-18T04:58:30.444Z,33.97
2022-11-18T04:59:02.418Z,33.96
2022-11-18T04:59:33.697Z,33.84
2022-11-18T05:00:05.290Z,33.74
2022-11-18T05:00:36.606Z,34.13
2022-11-18T05:01:07.989Z,33.81
2022-11-18T05:01:39.377Z,33.88
2022-11-18T05:02:10.645Z,34.01
2022-11-18T05:02:41.910Z,33.88
2022-11-18T05:03:14.635Z,33.94
2022-11-18T05:03:50.392Z,33.88
2022-11-18T05:04:22.981Z,34.22
2022-11-18T05:04:54.292Z,33.84
2022-11-18T05:05:25.597Z,34.20
2022-11-18T05:05:56.954Z,33.98
2022-11-18T05:06:28.383Z,33.87
2022-11-18T05:07:00.233Z,33.87
2022-11-18T05:07:31.938Z,33.83
2022-11-18T05:08:03.371Z,34.28
2022-11-18T05:08:34.651Z,33.91
2022-11-18T05:09:05.942Z,34.03
2022-11-18T05:09:37.191Z,34.07
2022-11-18T05:10:08.672Z,34.16
2022-11-18T05:10:39.975Z,33.85
2022-11-18T05:11:11.231Z,33.84
2022-11-18T05:11:42.508Z,34.22
2022-11-18T05:12:13.831Z,34.34
2022-11-18T05:12:45.135Z,34.12
2022-11-18T05:13:16.420Z,34.13
2022-11-18T05:13:47.715Z,33.85
2022-11-18T05:14:19.049Z,33.96
2022-11-18T05:14:51.077Z,34.25
2022-11-18T05:15:22.565Z,34.02
2022-11-18T05:15:53.858Z,33.90
2022-11-18T05:16:25.127Z,33.98
2022-11-18T05:16:57.013Z,33.97
2022-11-18T05:17:28.300Z,34.04
2022-11-18T05:17:59.586Z,34.06
2022-11-18T05:18:30.855Z,34.35
2022-11-18T05:19:02.467Z,34.15
2022-11-18T05:19:33.787Z,34.29
2022-11-18T05:20:05.252Z,34.30
2022-11-18T05:20:41.333Z,34.25
2022-11-18T05:21:13.168Z,34.05
2022-11-18T05:21:44.558Z,34.40
2022-11-18T05:22:15.858Z,34.25
2022-11-18T05:22:47.140Z,34.35
2022-11-18T05:23:18.412Z,34.08
2022-11-18T05:23:49.728Z,34.21
2022-11-18T05:24:21.033Z,34.39
2022-11-18T05:24:52.332Z,34.24
2022-11-18T05:25:23.597Z,34.43
2022-11-18T05:25:58.310Z,34.29
2022-11-18T05:26:33.579Z,34.00
2022-11-18T05:27:04.876Z,34.22
2022-11-18T05:27:36.188Z,34.13
2022-11-18T05:28:07.517Z,34.30
2022-11-18T05:28:38.803Z,34.34
2022-11-18T05:29:10.348Z,34.39
2022-11-18T05:29:41.633Z,34.37
2022-11-18T05:30:13.406Z,33.94
2022-11-18T05:30:44.712Z,34.01
2022-11-18T05:31:16.129Z,34.04
2022-11-18T05:31:47.807Z,34.17
2022-11-18T05:32:19.071Z,34.45
2022-11-18T05:32:50.345Z,34.35
2022-11-18T05:33:21.634Z,34.13
2022-11-18T05:33:52.919Z,34.44
2022-11-18T05:34:24.165Z,34.43
2022-11-18T05:34:55.482Z,34.43
2022-11-18T05:35:26.744Z,34.40
2022-11-18T05:35:58.066Z,34.27
2022-11-18T05:36:29.365Z,34.19
2022-11-18T05:37:00.652Z,34.12
2022-11-18T05:37:32.125Z,34.04
2022-11-18T05:38:03.463Z,34.33
2022-11-18T05:38:34.799Z,34.29
2022-11-18T05:39:06.159Z,34.44
2022-11-18T05:39:37.453Z,34.36
2022-11-18T05:40:09.189Z,34.19
2022-11-18T05:40:42.130Z,34.27
2022-11-18T05:41:13.388Z,34.18
2022-11-18T05:41:44.654Z,34.13
2022-11-18T05:42:15.927Z,34.26
2022-11-18T05:42:47.240Z,34.31
2022-11-18T05:43:18.515Z,34.05
2022-11-18T05:43:49.822Z,34.40
2022-11-18T05:44:21.085Z,34.32
2022-11-18T05:44:57.687Z,34.27
2022-11-18T05:45:29.606Z,34.21
2022-11-18T05:46:00.972Z,34.00
2022-11-18T05:46:32.349Z,34.39
2022-11-18T05:47:03.621Z,34.33
2022-11-18T05:47:34.902Z,34.43
2022-11-18T05:48:06.527Z,34.41
2022-11-18T05:48:37.844Z,34.34
2022-11-18T05:49:09.130Z,34.41
2022-11-18T05:49:40.432Z,34.31
2022-11-18T05:50:11.707Z,34.38
2022-11-18T05:50:45.271Z,34.10
2022-11-18T05:51:16.539Z,34.27
2022-11-18T05:51:47.841Z,34.16
2022-11-18T05:52:19.090Z,34.40
2022-11-18T05:52:50.383Z,34.33
2022-11-18T05:53:24.757Z,34.39
2022-11-18T05:53:56.040Z,34.13
2022-11-18T05:54:27.312Z,34.49
2022-11-18T05:54:58.591Z,34.20
2022-11-18T05:55:31.647Z,34.35
2022-11-18T05:56:05.725Z,34.50
2022-11-18T05:56:40.406Z,34.48
2022-11-18T05:57:11.681Z,34.05
2022-11-18T05:57:42.977Z,34.15
2022-11-18T05:58:14.345Z,34.43
2022-11-18T05:58:45.644Z,34.06
2022-11-18T05:59:17.204Z,34.09
2022-11-18T05:59:48.644Z,34.45
2022-11-18T06:00:19.920Z,34.41
2022-11-18T06:00:52.401Z,34.42
2022-11-18T06:01:25.115Z,34.17
2022-11-18T06:01:57.893Z,34.03
2022-11-18T06:02:29.218Z,34.19
2022-11-18T06:03:00.536Z,34.37
2022-11-18T06:03:32.005Z,34.17
2022-11-18T06:04:03.856Z,34.15
2022-11-18T06:04:37.212Z,34.45
2022-11-18T06:05:08.611Z,34.13
2022-11-18T06:05:39.889Z,34.21
2022-11-18T06:06:11.177Z,34.48
2022-11-18T06:06:42.651Z,34.38
2022-11-18T06:07:20.385Z,34.61
2022-11-18T06:07:51.753Z,34.57
2022-11-18T06:08:23.295Z,34.20
2022-11-18T06:08:59.864Z,34.42
2022-11-18T06:09:31.695Z,34.34
2022-11-18T06:10:05.861Z,34.49
2022-11-18T06:10:37.548Z,34.45
2022-11-18T06:11:09.154Z,34.40
2022-11-18T06:11:41.670Z,34.08
2022-11-18T06:12:14.018Z,34.07
2022-11-18T06:12:45.890Z,34.06
2022-11-18T06:13:20.837Z,34.25
2022-11-18T06:13:54.397Z,34.02
2022-11-18T06:14:27.089Z,34.04
2022-11-18T06:15:00.035Z,34.17
2022-11-18T06:15:32.730Z,34.32
2022-11-18T06:16:04.068Z,34.30
2022-11-18T06:16:40.550Z,34.09
2022-11-18T06:17:14.406Z,34.41
2022-11-18T06:17:49.732Z,33.94
2022-11-18T06:18:24.426Z,34.03
2022-11-18T06:18:55.668Z,34.28
2022-11-18T06:19:26.954Z,34.01
2022-11-18T06:19:58.251Z,34.28
2022-11-18T06:20:29.535Z,33.99
2022-11-18T06:21:01.441Z,34.29
2022-11-18T06:21:33.069Z,33.98
2022-11-18T06:22:04.659Z,34.19
2022-11-18T06:22:35.921Z,33.98
2022-11-18T06:23:07.198Z,34.01
2022-11-18T06:23:38.708Z,33.94
2022-11-18T06:24:10.002Z,34.32
2022-11-18T06:24:41.551Z,34.20
2022-11-18T06:25:12.852Z,34.22
2022-11-18T06:25:44.108Z,34.06
2022-11-18T06:26:15.511Z,34.10
2022-11-18T06:26:46.780Z,33.95
2022-11-18T06:27:18.047Z,33.91
2022-11-18T06:27:49.325Z,34.12
2022-11-18T06:28:20.586Z,33.98
2022-11-18T06:28:51.837Z,34.13
2022-11-18T06:29:27.536Z,34.28
2022-11-18T06:29:59.317Z,34.22
2022-11-18T06:30:30.635Z,34.06
2022-11-18T06:31:01.996Z,33.89
2022-11-18T06:31:33.287Z,34.28
2022-11-18T06:32:04.640Z,34.30
2022-11-18T06:32:35.947Z,34.05
2022-11-18T06:33:07.231Z,34.01
2022-11-18T06:33:38.533Z,34.27
2022-11-18T06:34:09.804Z,33.97
2022-11-18T06:34:41.935Z,33.99
2022-11-18T06:35:13.495Z,34.20
2022-11-18T06:35:44.907Z,34.14
2022-11-18T06:36:16.173Z,34.30
2022-11-18T06:36:47.494Z,34.34
2022-11-18T06:37:19.066Z,34.07
2022-11-18T06:37:50.357Z,34.09
2022-11-18T06:38:23.471Z,34.40
2022-11-18T06:38:54.738Z,34.28
2022-11-18T06:39:26.001Z,34.10
2022-11-18T06:39:57.261Z,34.17
2022-11-18T06:40:34.287Z,34.38
2022-11-18T06:41:06.127Z,34.53
2022-11-18T06:41:37.438Z,34.08
2022-11-18T06:42:08.724Z,34.16
2022-11-18T06:42:40.005Z,34.19
2022-11-18T06:43:11.513Z,34.53
2022-11-18T06:43:42.822Z,34.49
2022-11-18T06:44:14.196Z,34.17
2022-11-18T06:44:45.476Z,34.55
2022-11-18T06:45:16.947Z,34.49
2022-11-18T06:45:48.339Z,34.19
2022-11-18T06:46:19.674Z,34.39
2022-11-18T06:46:50.943Z,34.55
2022-11-18T06:47:22.237Z,34.18
2022-11-18T06:47:56.530Z,34.51
2022-11-18T06:48:27.801Z,34.10
2022-11-18T06:48:59.192Z,34.10
2022-11-18T06:49:30.466Z,34.09
2022-11-18T06:50:01.763Z,34.18
2022-11-18T06:50:33.027Z,34.44
2022-11-18T06:51:05.076Z,34.46
2022-11-18T06:51:36.335Z,34.14
2022-11-18T06:52:07.610Z,34.54
2022-11-18T06:52:38.910Z,34.42
2022-11-18T06:53:10.177Z,34.46
2022-11-18T06:53:41.501Z,34.53
2022-11-18T06:54:12.813Z,34.49
2022-11-18T06:54:44.089Z,34.13
2022-11-18T06:55:15.406Z,34.53
2022-11-18T06:55:46.686Z,34.39
2022-11-18T06:56:18.173Z,34.27
2022-11-18T06:56:49.442Z,34.45
2022-11-18T06:57:20.742Z,34.19
2022-11-18T06:57:51.996Z,34.44
2022-11-18T06:58:23.325Z,34.40
2022-11-18T06:58:55.069Z,34.30
2022-11-18T06:59:26.391Z,34.38
2022-11-18T07:00:01.799Z,34.50
2022-11-18T07:00:33.804Z,34.17
2022-11-18T07:01:08.933Z,34.42
2022-11-18T07:01:40.302Z,34.19
2022-11-18T07:02:11.582Z,34.39
2022-11-18T07:02:42.862Z,34.13